Time;durP1;ratioP1;P1;durP2;ratioP2;P2;SDS_P1;SDS_P2;PMS_P1;PMS_P2;Temp;Humidity;BMP_temperature;BMP_pressure;BME280_temperature;BME280_humidity;BME280_pressure;Samples;Min_cycle;Max_cycle;Signal;HPM_P1;HPM_P2
2024/02/26 00:02:22;;;;;;;2.05;1.27;;;;;;;3.33;100.00;100001.41;6293502;28;20057;-71
2024/02/26 00:05:24;;;;;;;3.30;1.70;;;;;;;3.30;100.00;99994.56;6300468;28;20459;-70
2024/02/26 00:08:27;;;;;;;2.45;1.50;;;;;;;3.28;100.00;100002.41;6299678;28;20044;-71
2024/02/26 00:11:28;;;;;;;1.38;1.20;;;;;;;3.28;100.00;99996.38;6300698;28;20051;-71
2024/02/26 00:14:29;;;;;;;3.85;1.60;;;;;;;3.15;100.00;99993.34;6300231;28;20052;-73
2024/02/26 00:17:31;;;;;;;2.53;1.13;;;;;;;3.15;100.00;99998.53;6300004;28;20356;-72
2024/02/26 00:20:32;;;;;;;2.40;1.30;;;;;;;3.16;100.00;99987.25;6299765;28;20059;-71
2024/02/26 00:23:35;;;;;;;1.77;1.30;;;;;;;3.16;100.00;99986.41;6299993;28;20491;-71
2024/02/26 00:26:36;;;;;;;7.03;1.38;;;;;;;3.11;100.00;99978.78;6299983;28;20045;-71
2024/02/26 00:29:37;;;;;;;3.10;1.67;;;;;;;3.05;100.00;99981.59;6284389;28;20041;-71
2024/02/26 00:32:39;;;;;;;3.58;1.50;;;;;;;3.02;100.00;99971.31;6287187;28;20041;-71
2024/02/26 00:35:40;;;;;;;3.28;1.98;;;;;;;2.89;100.00;99980.44;6299769;28;20045;-71
2024/02/26 00:38:44;;;;;;;5.40;2.10;;;;;;;2.87;100.00;99979.66;6299573;28;20041;-71
2024/02/26 00:41:46;;;;;;;3.38;1.70;;;;;;;2.87;100.00;99990.03;6299811;28;20469;-70
2024/02/26 00:44:47;;;;;;;3.22;1.70;;;;;;;2.80;100.00;99979.84;6299907;28;20047;-73
2024/02/26 00:47:48;;;;;;;2.90;1.60;;;;;;;2.77;100.00;99982.56;6300711;28;20052;-72
2024/02/26 00:50:50;;;;;;;2.30;1.40;;;;;;;2.83;100.00;99980.66;6307281;28;20378;-72
2024/02/26 00:53:52;;;;;;;5.88;2.20;;;;;;;2.85;100.00;99971.91;6307704;28;20059;-72
2024/02/26 00:56:54;;;;;;;1.95;1.50;;;;;;;2.87;100.00;99982.25;6307860;28;20348;-72
2024/02/26 00:59:56;;;;;;;3.03;1.88;;;;;;;2.87;100.00;99977.91;6307585;28;20050;-72
2024/02/26 01:02:59;;;;;;;2.25;1.70;;;;;;;2.78;100.00;99971.28;6302464;28;20084;-72
2024/02/26 01:06:00;;;;;;;3.03;1.30;;;;;;;2.79;100.00;99979.91;6279856;28;20055;-72
2024/02/26 01:09:03;;;;;;;4.03;1.60;;;;;;;2.77;100.00;99979.97;6297360;28;20364;-72
2024/02/26 01:12:05;;;;;;;3.92;2.13;;;;;;;2.75;100.00;99986.09;6291668;28;20472;-72
2024/02/26 01:15:08;;;;;;;2.60;1.50;;;;;;;2.73;100.00;99993.09;6298696;28;20055;-72
2024/02/26 01:18:09;;;;;;;3.72;1.98;;;;;;;2.69;100.00;99991.50;6307276;28;20460;-72
2024/02/26 01:21:10;;;;;;;2.33;1.67;;;;;;;2.66;100.00;99982.03;6307757;28;20048;-71
2024/02/26 01:24:13;;;;;;;2.45;1.48;;;;;;;2.63;100.00;100002.03;6307160;28;20091;-71
2024/02/26 01:27:15;;;;;;;1.92;1.45;;;;;;;2.61;100.00;100002.09;6307636;28;20049;-71
2024/02/26 01:30:17;;;;;;;4.47;2.50;;;;;;;2.55;100.00;100002.31;6289355;28;20342;-72
2024/02/26 01:33:18;;;;;;;3.10;1.85;;;;;;;2.56;100.00;99988.44;6283397;28;20045;-71
2024/02/26 01:36:20;;;;;;;3.28;1.90;;;;;;;2.55;100.00;99999.72;6307213;28;20045;-71
2024/02/26 01:39:22;;;;;;;4.75;1.95;;;;;;;2.59;100.00;99998.72;6307048;28;20429;-71
2024/02/26 01:42:24;;;;;;;4.03;1.90;;;;;;;2.50;100.00;99999.03;6307525;28;20059;-71
2024/02/26 01:45:25;;;;;;;3.40;2.10;;;;;;;2.45;100.00;99987.94;6297577;28;20056;-71
2024/02/26 01:48:27;;;;;;;2.42;1.77;;;;;;;2.47;100.00;99993.94;6283815;28;20053;-71
2024/02/26 01:51:29;;;;;;;3.63;1.98;;;;;;;2.48;100.00;99988.69;6307393;28;20044;-71
2024/02/26 01:54:32;;;;;;;2.97;1.73;;;;;;;2.49;100.00;99979.16;6307265;28;20048;-71
2024/02/26 01:57:34;;;;;;;3.33;2.17;;;;;;;2.49;100.00;99990.38;6307293;28;20059;-71
2024/02/26 02:00:35;;;;;;;3.95;2.22;;;;;;;2.48;100.00;99996.47;6303887;28;20045;-71
2024/02/26 02:03:37;;;;;;;3.90;2.42;;;;;;;2.46;100.00;99987.91;6303112;28;20048;-71
2024/02/26 02:06:39;;;;;;;6.43;2.17;;;;;;;2.45;100.00;100001.78;6303251;28;20041;-71
2024/02/26 02:09:41;;;;;;;4.10;2.33;;;;;;;2.46;100.00;99998.28;6300263;28;20045;-71
2024/02/26 02:12:44;;;;;;;5.10;2.47;;;;;;;2.47;100.00;99999.97;6279053;28;20041;-71
2024/02/26 02:15:45;;;;;;;3.60;2.08;;;;;;;2.43;100.00;100005.28;6299350;28;20045;-71
2024/02/26 02:18:46;;;;;;;3.90;2.35;;;;;;;2.41;100.00;100010.53;6303314;28;20049;-71
2024/02/26 02:21:49;;;;;;;4.32;2.67;;;;;;;2.40;100.00;100000.19;6303565;28;20052;-71
2024/02/26 02:24:53;;;;;;;9.48;2.42;;;;;;;2.37;100.00;99993.38;6302677;28;20337;-71
2024/02/26 02:27:55;;;;;;;5.57;2.95;;;;;;;2.41;100.00;99991.53;6302386;28;20463;-72
2024/02/26 02:30:57;;;;;;;3.55;2.10;;;;;;;2.41;100.00;99996.72;6302482;28;20052;-71
2024/02/26 02:33:59;;;;;;;5.65;2.35;;;;;;;2.32;100.00;99997.88;6302391;28;20049;-70
2024/02/26 02:37:01;;;;;;;4.72;2.30;;;;;;;2.32;100.00;99999.59;6302418;28;20048;-72
2024/02/26 02:40:03;;;;;;;3.63;1.98;;;;;;;2.31;100.00;99997.91;6302261;28;20056;-71
2024/02/26 02:43:04;;;;;;;4.15;2.42;;;;;;;2.29;100.00;99993.63;6302337;28;20057;-73
2024/02/26 02:46:06;;;;;;;3.90;2.67;;;;;;;2.31;100.00;99995.31;6302285;28;20059;-70
2024/02/26 02:49:10;;;;;;;3.85;2.53;;;;;;;2.27;100.00;99998.00;6301572;28;20045;-71
2024/02/26 02:52:12;;;;;;;4.30;2.28;;;;;;;2.29;100.00;100006.56;6302340;28;20131;-70
2024/02/26 02:55:14;;;;;;;3.22;2.25;;;;;;;2.36;100.00;100004.63;6301715;28;20444;-73
2024/02/26 02:58:16;;;;;;;3.38;1.95;;;;;;;2.41;100.00;100002.75;6284991;28;20357;-71
2024/02/26 03:01:17;;;;;;;4.55;2.40;;;;;;;2.45;100.00;100012.13;6302192;28;20048;-73
2024/02/26 03:04:18;;;;;;;6.47;2.65;;;;;;;2.52;100.00;100008.44;6278869;28;20061;-71
2024/02/26 03:07:21;;;;;;;6.55;3.20;;;;;;;2.56;100.00;100014.38;6277647;28;20055;-71
2024/02/26 03:10:22;;;;;;;5.97;3.35;;;;;;;2.63;100.00;100018.44;6301089;28;20067;-71
2024/02/26 03:13:24;;;;;;;2.90;2.50;;;;;;;2.71;100.00;100029.44;6300662;28;20444;-71
2024/02/26 03:16:25;;;;;;;3.25;1.98;;;;;;;2.64;100.00;100035.72;6279938;28;20060;-71
2024/02/26 03:19:26;;;;;;;5.22;2.55;;;;;;;2.71;100.00;100019.06;6294344;28;20060;-71
2024/02/26 03:22:29;;;;;;;3.97;2.30;;;;;;;2.76;100.00;100032.72;6301336;28;20429;-71
2024/02/26 03:25:30;;;;;;;6.00;2.15;;;;;;;2.82;100.00;100028.22;6301612;28;20056;-71
2024/02/26 03:28:33;;;;;;;3.85;2.03;;;;;;;2.91;100.00;100031.38;6300731;28;20044;-71
2024/02/26 03:31:35;;;;;;;4.72;2.58;;;;;;;2.92;100.00;100020.09;6295812;28;20060;-71
2024/02/26 03:34:38;;;;;;;4.55;2.58;;;;;;;2.95;100.00;100025.19;6279104;28;20440;-71
2024/02/26 03:37:41;;;;;;;3.17;1.98;;;;;;;2.93;100.00;100026.13;6287154;28;20050;-71
2024/02/26 03:40:43;;;;;;;5.07;2.20;;;;;;;2.89;100.00;100020.19;6277126;28;20401;-72
2024/02/26 03:43:45;;;;;;;3.60;2.22;;;;;;;2.83;100.00;100030.78;6296328;28;20047;-71
2024/02/26 03:46:46;;;;;;;2.58;1.90;;;;;;;2.78;100.00;100032.69;6296716;28;20391;-71
2024/02/26 03:49:48;;;;;;;5.13;2.50;;;;;;;2.79;100.00;100036.97;6300230;28;20054;-71
2024/02/26 03:52:51;;;;;;;9.82;3.65;;;;;;;2.77;100.00;100036.16;6292547;28;20479;-71
2024/02/26 03:55:52;;;;;;;4.00;2.75;;;;;;;2.77;100.00;100043.94;6300597;28;20048;-73
2024/02/26 03:58:54;;;;;;;4.82;2.55;;;;;;;2.81;100.00;100045.53;6300007;28;20040;-71
2024/02/26 04:01:55;;;;;;;5.55;3.05;;;;;;;2.83;100.00;100048.09;6295308;28;20041;-73
2024/02/26 04:04:56;;;;;;;4.35;2.65;;;;;;;2.83;100.00;100051.53;6279929;28;20075;-71
2024/02/26 04:07:59;;;;;;;10.30;2.70;;;;;;;2.86;100.00;100066.16;6280667;28;20056;-71
2024/02/26 04:11:00;;;;;;;4.63;2.78;;;;;;;2.86;100.00;100066.16;6300488;28;20055;-71
2024/02/26 04:14:03;;;;;;;5.32;3.08;;;;;;;2.84;100.00;100075.75;6300077;28;20045;-71
2024/02/26 04:17:04;;;;;;;5.40;2.97;;;;;;;2.81;100.00;100068.91;6300654;28;20052;-71
2024/02/26 04:20:07;;;;;;;5.28;2.72;;;;;;;2.81;100.00;100074.09;6299612;28;20055;-72
2024/02/26 04:23:09;;;;;;;5.63;3.20;;;;;;;2.79;100.00;100070.69;6300009;28;20041;-72
2024/02/26 04:26:11;;;;;;;4.28;2.10;;;;;;;2.78;100.00;100066.41;6300052;28;20460;-73
2024/02/26 04:29:12;;;;;;;3.60;2.20;;;;;;;2.75;100.00;100072.53;6299711;28;20052;-72
2024/02/26 04:32:14;;;;;;;5.65;2.58;;;;;;;2.80;100.00;100068.03;6299970;28;20060;-72
2024/02/26 04:35:15;;;;;;;7.70;2.85;;;;;;;2.79;100.00;100073.28;6299693;28;20349;-74
2024/02/26 04:38:18;;;;;;;4.05;2.47;;;;;;;2.81;100.00;100074.09;6299459;28;20056;-73
2024/02/26 04:41:19;;;;;;;5.28;3.00;;;;;;;2.83;100.00;100069.72;6299410;28;20120;-72
2024/02/26 04:44:20;;;;;;;3.22;2.15;;;;;;;2.84;100.00;100071.41;6299860;28;20045;-71
2024/02/26 04:47:22;;;;;;;4.95;2.70;;;;;;;2.86;100.00;100082.59;6299922;28;20056;-71
2024/02/26 04:50:23;;;;;;;3.42;2.20;;;;;;;2.85;100.00;100086.06;6299306;28;20131;-71
2024/02/26 04:53:26;;;;;;;2.40;1.67;;;;;;;2.84;100.00;100086.97;6299748;28;20447;-71
2024/02/26 04:56:27;;;;;;;2.67;1.98;;;;;;;2.83;100.00;100084.44;6299632;28;20060;-73
2024/02/26 04:59:29;;;;;;;4.38;2.40;;;;;;;2.82;100.00;100086.19;6299129;28;20055;-73
2024/02/26 05:02:32;;;;;;;4.38;2.10;;;;;;;2.81;100.00;100084.47;6299838;28;20052;-71
2024/02/26 05:05:33;;;;;;;8.68;2.33;;;;;;;2.80;100.00;100083.63;6299119;28;20068;-71
2024/02/26 05:08:38;;;;;;;3.45;2.10;;;;;;;2.78;100.00;100088.03;6299248;28;20057;-71
2024/02/26 05:11:39;;;;;;;7.03;2.00;;;;;;;2.77;100.00;100091.53;6299718;28;20089;-71
2024/02/26 05:14:40;;;;;;;3.05;1.98;;;;;;;2.79;100.00;100094.91;6288785;28;20041;-73
2024/02/26 05:17:42;;;;;;;4.38;1.90;;;;;;;2.82;100.00;100104.34;6272862;28;20421;-71
2024/02/26 05:20:43;;;;;;;4.13;2.10;;;;;;;2.83;100.00;100112.97;6285974;28;20095;-73
2024/02/26 05:23:46;;;;;;;2.95;1.92;;;;;;;2.82;100.00;100106.06;6299382;28;20052;-73
2024/02/26 05:26:47;;;;;;;3.40;2.42;;;;;;;2.87;100.00;100109.38;6290326;28;20045;-71
2024/02/26 05:29:48;;;;;;;3.08;1.85;;;;;;;2.85;100.00;100111.16;6260864;28;20052;-73
2024/02/26 05:32:50;;;;;;;5.63;2.28;;;;;;;2.85;100.00;100111.16;6270571;28;20064;-71
2024/02/26 05:35:51;;;;;;;3.35;2.00;;;;;;;2.79;100.00;100117.41;6272593;28;20452;-73
2024/02/26 05:38:54;;;;;;;4.93;2.45;;;;;;;2.77;100.00;100109.69;6274558;28;20421;-71
2024/02/26 05:41:55;;;;;;;3.53;2.00;;;;;;;2.82;100.00;100109.53;6284134;28;20128;-73
2024/02/26 05:44:57;;;;;;;3.20;1.95;;;;;;;2.77;100.00;100109.69;6291589;28;20491;-72
2024/02/26 05:47:58;;;;;;;5.85;2.80;;;;;;;2.78;100.00;100100.16;6282245;28;20454;-72
2024/02/26 05:51:00;;;;;;;4.68;2.65;;;;;;;2.80;100.00;100114.75;6285147;28;20051;-72
2024/02/26 05:54:03;;;;;;;7.40;3.22;;;;;;;2.81;100.00;100120.78;6302341;28;20049;-71
2024/02/26 05:57:04;;;;;;;10.25;4.35;;;;;;;2.82;100.00;100117.31;6270853;28;20056;-71
2024/02/26 06:00:07;;;;;;;13.05;4.30;;;;;;;2.83;100.00;100118.16;6278545;28;20449;-71
2024/02/26 06:03:08;;;;;;;10.85;5.03;;;;;;;2.87;100.00;100124.97;6279413;28;20055;-71
2024/02/26 06:06:10;;;;;;;8.18;3.70;;;;;;;2.88;100.00;100129.25;6300354;28;20048;-71
2024/02/26 06:09:13;;;;;;;7.65;3.28;;;;;;;2.87;100.00;100133.59;6277669;28;20045;-71
2024/02/26 06:12:14;;;;;;;5.65;2.70;;;;;;;2.90;100.00;100137.81;6302196;28;20143;-71
2024/02/26 06:15:16;;;;;;;5.65;2.92;;;;;;;2.88;100.00;100148.25;6294707;28;20059;-71
2024/02/26 06:18:17;;;;;;;5.07;2.10;;;;;;;2.90;100.00;100149.03;6302355;28;20054;-73
2024/02/26 06:21:18;;;;;;;3.75;1.92;;;;;;;2.90;100.00;100158.56;6294904;28;20053;-73
2024/02/26 06:24:22;;;;;;;2.92;2.13;;;;;;;2.92;100.00;100167.19;6286130;28;20071;-74
2024/02/26 06:27:23;;;;;;;3.42;2.03;;;;;;;2.95;100.00;100164.47;6302898;28;20440;-73
2024/02/26 06:30:25;;;;;;;2.28;1.50;;;;;;;2.91;100.00;100168.94;6302150;28;20445;-71
2024/02/26 06:33:26;;;;;;;5.25;2.13;;;;;;;2.93;100.00;100174.91;6302759;28;20051;-70
2024/02/26 06:36:28;;;;;;;2.42;1.67;;;;;;;2.97;100.00;100173.91;6302359;28;20048;-72
2024/02/26 06:39:30;;;;;;;4.10;2.28;;;;;;;2.96;100.00;100184.34;6302332;28;20087;-72
2024/02/26 06:42:31;;;;;;;3.28;1.90;;;;;;;2.92;100.00;100182.75;6302724;28;20044;-72
2024/02/26 06:45:33;;;;;;;2.70;1.92;;;;;;;2.92;100.00;100196.56;6301900;28;20041;-73
2024/02/26 06:48:36;;;;;;;1.77;1.58;;;;;;;2.99;100.00;100197.22;6301960;28;20079;-72
2024/02/26 06:51:38;;;;;;;4.30;1.88;;;;;;;3.02;100.00;100203.16;6302410;28;20056;-72
2024/02/26 06:54:41;;;;;;;3.60;1.73;;;;;;;2.99;100.00;100200.66;6302214;28;20436;-71
2024/02/26 06:57:42;;;;;;;4.45;1.60;;;;;;;3.09;100.00;100205.56;6302104;28;20076;-72
2024/02/26 07:00:44;;;;;;;3.85;1.83;;;;;;;3.18;100.00;100206.16;6301604;28;20048;-72
2024/02/26 07:03:45;;;;;;;2.70;1.90;;;;;;;3.15;100.00;100214.03;6301624;28;20044;-71
2024/02/26 07:06:47;;;;;;;4.43;1.90;;;;;;;3.21;100.00;100210.38;6302090;28;20052;-73
2024/02/26 07:09:50;;;;;;;5.47;1.92;;;;;;;3.25;100.00;100218.03;6301271;28;20052;-73
2024/02/26 07:12:51;;;;;;;2.45;1.52;;;;;;;3.25;100.00;100215.41;6302016;28;20051;-71
2024/02/26 07:15:52;;;;;;;6.18;2.08;;;;;;;3.25;100.00;100223.22;6297230;28;20055;-71
2024/02/26 07:18:54;;;;;;;2.80;1.60;;;;;;;3.28;100.00;100219.69;6264318;28;20045;-71
2024/02/26 07:21:55;;;;;;;2.97;1.55;;;;;;;3.29;100.00;100222.22;6261581;28;20073;-71
2024/02/26 07:24:58;;;;;;;2.65;1.70;;;;;;;3.24;100.00;100226.72;6261273;28;20059;-71
2024/02/26 07:27:59;;;;;;;2.45;1.20;;;;;;;3.33;100.00;100229.91;6281360;28;20115;-72
2024/02/26 07:31:00;;;;;;;4.75;1.45;;;;;;;3.35;100.00;100231.56;6301156;28;20461;-73
2024/02/26 07:34:02;;;;;;;2.83;1.42;;;;;;;3.33;100.00;100233.38;6299885;28;20071;-73
2024/02/26 07:37:03;;;;;;;1.77;1.58;;;;;;;3.34;100.00;100231.63;6276270;28;20048;-71
2024/02/26 07:40:08;;;;;;;4.47;1.35;;;;;;;3.41;100.00;100236.56;6281415;28;20126;-71
2024/02/26 07:43:10;;;;;;;4.32;1.33;;;;;;;3.52;100.00;100241.41;6291302;28;20127;-71
2024/02/26 07:46:12;;;;;;;2.72;1.45;;;;;;;3.54;100.00;100237.00;6294110;28;20055;-72
2024/02/26 07:49:13;;;;;;;5.50;1.55;;;;;;;3.55;100.00;100238.72;6291333;28;20127;-73
2024/02/26 07:52:14;;;;;;;1.65;0.98;;;;;;;3.60;100.00;100242.00;6292648;28;20048;-71
2024/02/26 07:55:18;;;;;;;2.17;1.60;;;;;;;3.67;100.00;100238.28;6301663;28;20060;-72
2024/02/26 07:58:20;;;;;;;2.33;1.58;;;;;;;3.66;100.00;100233.16;6299495;28;20048;-73
2024/02/26 08:01:21;;;;;;;1.83;1.10;;;;;;;3.73;100.00;100239.88;6300644;28;20048;-72
2024/02/26 08:04:22;;;;;;;2.58;1.35;;;;;;;3.80;100.00;100249.13;6284774;28;20052;-72
2024/02/26 08:07:24;;;;;;;2.47;1.50;;;;;;;3.78;100.00;100254.41;6284433;28;20059;-73
2024/02/26 08:10:26;;;;;;;2.80;1.48;;;;;;;3.86;100.00;100251.56;6259733;28;20052;-73
2024/02/26 08:13:28;;;;;;;3.78;1.70;;;;;;;3.87;100.00;100260.19;6281884;28;20107;-73
2024/02/26 08:16:29;;;;;;;4.10;1.63;;;;;;;3.95;100.00;100255.56;6256670;28;20045;-71
2024/02/26 08:19:30;;;;;;;2.25;1.40;;;;;;;4.06;100.00;100256.06;6265840;28;20368;-71
2024/02/26 08:22:33;;;;;;;1.83;1.30;;;;;;;4.07;100.00;100255.16;6272392;28;20053;-72
2024/02/26 08:25:35;;;;;;;2.42;1.50;;;;;;;4.13;100.00;100267.94;6270298;28;20045;-72
2024/02/26 08:28:37;;;;;;;2.58;1.58;;;;;;;4.10;100.00;100265.47;6263378;28;20056;-73
2024/02/26 08:31:38;;;;;;;2.75;1.80;;;;;;;4.15;100.00;100262.69;6274499;28;20049;-72
2024/02/26 08:34:40;;;;;;;3.97;2.10;;;;;;;4.27;100.00;100268.31;6279754;28;20044;-73
2024/02/26 08:37:44;;;;;;;4.25;2.22;;;;;;;4.38;100.00;100269.69;6286653;28;20044;-73
2024/02/26 08:40:47;;;;;;;4.47;1.83;;;;;;;4.48;100.00;100269.31;6277797;28;20441;-75
2024/02/26 08:43:48;;;;;;;3.88;2.13;;;;;;;4.53;100.00;100266.53;6288261;28;20052;-75
2024/02/26 08:46:50;;;;;;;17.08;5.25;;;;;;;4.60;100.00;100269.78;6299972;28;20041;-74
2024/02/26 08:49:52;;;;;;;10.00;4.95;;;;;;;4.74;100.00;100264.91;6279676;28;20127;-75
2024/02/26 08:52:53;;;;;;;59.83;12.02;;;;;;;4.77;100.00;100272.63;6287542;28;20040;-75
2024/02/26 08:55:56;;;;;;;37.50;13.60;;;;;;;4.86;100.00;100271.41;6292954;28;20051;-75
2024/02/26 08:58:59;;;;;;;43.58;11.75;;;;;;;4.86;100.00;100274.00;6259488;28;20483;-73
2024/02/26 09:02:00;;;;;;;9.27;4.38;;;;;;;4.87;100.00;100275.72;6288061;28;20057;-72
2024/02/26 09:05:01;;;;;;;23.40;9.82;;;;;;;4.85;100.00;100278.34;6289295;28;20052;-72
2024/02/26 09:08:03;;;;;;;7.05;4.00;;;;;;;4.95;100.00;100278.84;6278953;28;20353;-72
2024/02/26 09:11:06;;;;;;;4.85;2.75;;;;;;;4.93;100.00;100286.75;6301163;28;20055;-72
2024/02/26 09:14:08;;;;;;;11.95;5.68;;;;;;;5.02;100.00;100282.94;6304506;28;20463;-72
2024/02/26 09:17:09;;;;;;;10.32;2.75;;;;;;;5.02;100.00;100286.38;6295358;28;20368;-72
2024/02/26 09:20:13;;;;;;;3.83;1.88;;;;;;;5.13;100.00;100291.19;6277128;28;20048;-73
2024/02/26 09:23:14;;;;;;;2.53;1.83;;;;;;;5.22;100.00;100287.38;6303134;28;20045;-72
2024/02/26 09:26:17;;;;;;;4.60;1.75;;;;;;;5.24;100.00;100290.78;6304293;28;20044;-72
2024/02/26 09:29:18;;;;;;;4.45;1.60;;;;;;;5.38;100.00;100295.47;6303508;28;20432;-72
2024/02/26 09:32:20;;;;;;;2.25;1.60;;;;;;;5.35;100.00;100299.03;6304328;28;20060;-72
2024/02/26 09:35:22;;;;;;;7.68;3.85;;;;;;;5.43;100.00;100309.16;6274349;28;20049;-72
2024/02/26 09:38:23;;;;;;;8.18;3.63;;;;;;;5.48;100.00;100315.03;6281322;28;20114;-72
2024/02/26 09:41:29;;;;;;;16.85;6.85;;;;;;;5.51;100.00;100310.56;6287427;28;20048;-72
2024/02/26 09:44:33;;;;;;;9.68;3.92;;;;;;;5.56;100.00;100310.38;6294464;28;20055;-72
2024/02/26 09:47:37;;;;;;;9.00;4.40;;;;;;;5.57;100.00;100315.50;6274968;28;20146;-72
2024/02/26 09:50:39;;;;;;;13.50;5.43;;;;;;;5.62;100.00;100314.47;6271975;28;20176;-72
2024/02/26 09:53:43;;;;;;;13.93;5.20;;;;;;;5.67;100.00;100321.19;6292741;28;20055;-72
2024/02/26 09:56:50;;;;;;;18.73;7.40;;;;;;;5.74;100.00;100327.03;6303628;28;20040;-73
2024/02/26 09:59:54;;;;;;;22.42;8.40;;;;;;;5.77;100.00;100313.88;6302945;28;20044;-72
2024/02/26 10:02:58;;;;;;;6.18;2.88;;;;;;;5.83;100.00;100321.44;6303314;28;20048;-74
2024/02/26 10:05:59;;;;;;;17.08;5.50;;;;;;;5.90;100.00;100314.22;6303116;28;20048;-74
2024/02/26 10:09:04;;;;;;;10.57;3.40;;;;;;;6.01;100.00;100333.78;6302713;28;20369;-75
2024/02/26 10:12:10;;;;;;;72.35;16.40;;;;;;;6.04;100.00;100328.44;6303403;28;20058;-75
2024/02/26 10:15:11;;;;;;;22.80;7.55;;;;;;;6.18;100.00;100330.47;6291744;28;20052;-74
2024/02/26 10:18:13;;;;;;;21.67;6.68;;;;;;;6.25;100.00;100326.66;6282317;28;20048;-74
2024/02/26 10:21:15;;;;;;;40.58;12.68;;;;;;;6.26;100.00;100327.53;6302239;28;20048;-75
2024/02/26 10:24:17;;;;;;;45.38;11.15;;;;;;;6.35;100.00;100327.13;6302733;28;20378;-74
2024/02/26 10:27:20;;;;;;;63.13;12.90;;;;;;;6.33;100.00;100328.97;6303027;28;20048;-76
2024/02/26 10:30:22;;;;;;;2.50;1.67;;;;;;;6.42;100.00;100332.94;6302101;28;20048;-75
2024/02/26 10:33:25;;;;;;;2.15;1.52;;;;;;;6.55;100.00;100316.69;6302861;28;20131;-75
2024/02/26 10:36:27;;;;;;;3.50;1.30;;;;;;;6.67;100.00;100330.94;6302327;28;20047;-75
2024/02/26 10:39:28;;;;;;;1.40;0.98;;;;;;;6.77;100.00;100329.66;6302194;28;20056;-75
2024/02/26 10:42:32;;;;;;;5.82;0.90;;;;;;;6.84;100.00;100333.66;6297517;28;20052;-74
2024/02/26 10:45:33;;;;;;;1.27;0.85;;;;;;;6.92;100.00;100335.09;6285028;28;20045;-74
2024/02/26 10:48:34;;;;;;;3.47;1.08;;;;;;;7.08;100.00;100334.31;6301355;28;20075;-74
2024/02/26 10:51:39;;;;;;;2.08;0.98;;;;;;;7.15;100.00;100334.06;6296008;28;20445;-74
2024/02/26 10:54:44;;;;;;;1.38;0.80;;;;;;;7.15;100.00;100332.28;6293763;28;20049;-73
2024/02/26 10:57:48;;;;;;;4.00;0.77;;;;;;;7.35;100.00;100347.03;6302198;28;20354;-74
2024/02/26 11:00:51;;;;;;;6.05;2.33;;;;;;;7.52;100.00;100346.25;6285008;28;20044;-72
2024/02/26 11:03:53;;;;;;;41.80;12.57;;;;;;;7.54;100.00;100341.78;6279693;28;20048;-72
2024/02/26 11:06:57;;;;;;;25.65;8.00;;;;;;;7.65;100.00;100363.06;6277507;28;20040;-72
2024/02/26 11:10:00;;;;;;;29.13;8.05;;;;;;;7.69;100.00;100353.31;6279080;28;20045;-72
2024/02/26 11:13:04;;;;;;;25.42;7.65;;;;;;;7.84;100.00;100355.19;6280270;28;20056;-74
2024/02/26 11:16:07;;;;;;;24.20;6.90;;;;;;;7.82;100.00;100354.44;6279689;28;20040;-74
2024/02/26 11:19:10;;;;;;;9.98;4.18;;;;;;;7.98;100.00;100354.53;6279496;28;20048;-74
2024/02/26 11:22:11;;;;;;;1.67;1.08;;;;;;;8.10;100.00;100348.69;6279459;28;20055;-73
2024/02/26 11:25:13;;;;;;;17.92;6.55;;;;;;;8.12;100.00;100350.28;6283007;28;20045;-74
2024/02/26 11:28:19;;;;;;;5.63;2.75;;;;;;;8.22;100.00;100355.94;6280197;28;20099;-74
2024/02/26 11:31:27;;;;;;;6.47;2.70;;;;;;;8.30;100.00;100358.16;6282910;28;20322;-74
2024/02/26 11:34:29;;;;;;;2.05;1.00;;;;;;;8.44;100.00;100354.88;6272732;28;20045;-73
2024/02/26 11:37:30;;;;;;;1.70;1.27;;;;;;;8.45;100.00;100367.03;6272917;28;20040;-73
2024/02/26 11:40:33;;;;;;;1.30;1.10;;;;;;;8.40;100.00;100359.41;6276446;28;20052;-74
2024/02/26 11:44:00;;;;;;;2.13;1.20;;;;;;;8.54;100.00;100363.94;6279645;28;20464;-75
2024/02/26 11:47:10;;;;;;;2.00;1.40;;;;;;;8.69;100.00;100362.34;6271514;28;20387;-76
2024/02/26 11:50:36;;;;;;;2.13;0.93;;;;;;;8.87;100.00;100350.91;6273514;28;20456;-75
2024/02/26 11:53:48;;;;;;;1.85;1.23;;;;;;;8.85;100.00;100361.44;6279216;28;20053;-74
2024/02/26 11:56:51;;;;;;;2.95;1.85;;;;;;;8.96;100.00;100360.06;6278778;28;20053;-77
2024/02/26 11:59:54;;;;;;;1.65;1.13;;;;;;;9.04;100.00;100357.88;6282696;28;20040;-76
2024/02/26 12:03:00;;;;;;;1.38;0.90;;;;;;;9.12;100.00;100356.50;6283333;28;20048;-75
2024/02/26 12:06:02;;;;;;;2.70;1.52;;;;;;;9.02;100.00;100357.94;6273658;28;20053;-75
2024/02/26 12:09:03;;;;;;;2.08;1.42;;;;;;;9.07;100.00;100347.22;6267421;28;20064;-75
2024/02/26 12:12:07;;;;;;;2.55;1.85;;;;;;;9.24;100.00;100349.78;6273883;28;20045;-76
2024/02/26 12:15:11;;;;;;;2.08;1.23;;;;;;;9.19;100.00;100343.94;6273731;28;20049;-75
2024/02/26 12:18:18;;;;;;;3.03;2.03;;;;;;;9.26;100.00;100339.19;6272702;28;20051;-76
2024/02/26 12:21:19;;;;;;;7.70;2.25;;;;;;;9.28;100.00;100347.84;6275666;28;20049;-75
2024/02/26 12:24:22;;;;;;;27.63;9.75;;;;;;;9.34;100.00;100350.97;6274680;28;20040;-74
2024/02/26 12:27:23;;;;;;;17.63;5.85;;;;;;;9.34;100.00;100356.22;6274893;28;20051;-72
2024/02/26 12:30:29;;;;;;;34.85;10.90;;;;;;;9.38;100.00;100365.59;6276304;28;20040;-75
2024/02/26 12:33:31;;;;;;;7.07;2.53;;;;;;;9.48;100.00;100365.94;6276670;28;20041;-73
2024/02/26 12:36:35;;;;;;;2.72;1.17;;;;;;;9.46;100.00;100372.22;6281550;28;20052;-74
2024/02/26 12:39:38;;;;;;;6.93;2.50;;;;;;;9.41;100.00;100369.84;6299328;28;20083;-75
2024/02/26 12:42:40;;;;;;;8.63;3.97;;;;;;;9.36;100.00;100364.84;6277826;28;20044;-75
2024/02/26 12:45:46;;;;;;;10.55;4.28;;;;;;;9.30;100.00;100372.19;6265647;28;20052;-74
2024/02/26 12:48:47;;;;;;;5.68;2.92;;;;;;;9.28;100.00;100371.44;6275177;28;20049;-76
2024/02/26 12:51:49;;;;;;;15.15;5.78;;;;;;;9.33;98.69;100370.25;6264589;28;20049;-77
2024/02/26 12:54:50;;;;;;;8.30;4.38;;;;;;;9.37;96.51;100378.81;6269828;28;20052;-80
2024/02/26 12:57:54;;;;;;;63.47;22.10;;;;;;;9.42;97.21;100379.41;6278228;28;20072;-78
2024/02/26 13:00:57;;;;;;;25.55;9.43;;;;;;;9.54;100.00;100383.16;6282116;28;20056;-76
2024/02/26 13:04:00;;;;;;;10.95;4.07;;;;;;;9.52;100.00;100377.13;6279361;28;20072;-76
2024/02/26 13:07:04;;;;;;;17.67;7.10;;;;;;;9.46;98.02;100377.47;6279670;28;20053;-77
2024/02/26 13:10:07;;;;;;;24.88;10.60;;;;;;;9.46;100.00;100385.34;6298931;28;20468;-79
2024/02/26 13:13:08;;;;;;;24.73;9.27;;;;;;;9.50;100.00;100392.09;6286060;28;20445;-77
2024/02/26 13:16:15;;;;;;;14.57;5.38;;;;;;;9.54;100.00;100402.34;6274337;28;20092;-78
2024/02/26 13:19:17;;;;;;;27.80;8.93;;;;;;;9.50;100.00;100407.84;6297534;28;20055;-78
2024/02/26 13:22:21;;;;;;;18.35;6.47;;;;;;;9.52;100.00;100417.31;6299645;28;20059;-77
2024/02/26 13:25:23;;;;;;;22.13;6.72;;;;;;;9.61;100.00;100415.97;6289872;28;20064;-78
2024/02/26 13:28:27;;;;;;;28.25;10.27;;;;;;;9.56;100.00;100428.50;6298726;28;20048;-76
2024/02/26 13:31:30;;;;;;;9.40;4.15;;;;;;;9.55;100.00;100425.03;6299167;28;20049;-77
2024/02/26 13:34:33;;;;;;;15.80;6.13;;;;;;;9.59;100.00;100431.78;6299302;28;20048;-76
2024/02/26 13:37:34;;;;;;;5.95;2.35;;;;;;;9.68;100.00;100434.84;6299213;28;20052;-77
2024/02/26 13:40:36;;;;;;;4.28;2.60;;;;;;;9.66;100.00;100433.13;6299187;28;20048;-76
2024/02/26 13:43:37;;;;;;;2.03;1.13;;;;;;;9.82;100.00;100430.53;6280310;28;20045;-78
2024/02/26 13:46:40;;;;;;;2.47;1.23;;;;;;;9.80;100.00;100432.38;6276280;28;20053;-77
2024/02/26 13:49:42;;;;;;;3.00;1.67;;;;;;;9.84;100.00;100433.06;6307442;22;20349;-74
2024/02/26 13:52:43;;;;;;;1.88;1.45;;;;;;;9.91;100.00;100437.06;6313876;28;20420;-73
2024/02/26 13:55:44;;;;;;;1.63;0.68;;;;;;;9.88;100.00;100427.56;6313758;28;20047;-72
2024/02/26 13:58:46;;;;;;;1.77;0.85;;;;;;;9.82;100.00;100432.31;6318528;28;20052;-73
2024/02/26 14:01:49;;;;;;;2.30;1.00;;;;;;;9.78;100.00;100439.50;6296983;28;20044;-73
2024/02/26 14:04:50;;;;;;;1.88;0.88;;;;;;;9.75;100.00;100439.66;6303792;28;20126;-73
2024/02/26 14:07:52;;;;;;;0.65;0.65;;;;;;;9.69;100.00;100447.03;6300995;28;20037;-74